sensor_id;sensor_type;location;lat;lon;timestamp;P1;durP1;ratioP1;P2;durP2;ratioP2
42912;SDS011;50720;54.324;18.558;2024-02-21T00:01:51;17.35;;;4.20;;
42912;SDS011;50720;54.324;18.558;2024-02-21T00:04:35;13.82;;;3.72;;
42912;SDS011;50720;54.324;18.558;2024-02-21T00:07:21;16.77;;;4.50;;
42912;SDS011;50720;54.324;18.558;2024-02-21T00:10:05;16.88;;;4.35;;
42912;SDS011;50720;54.324;18.558;2024-02-21T00:12:50;29.83;;;4.15;;
42912;SDS011;50720;54.324;18.558;2024-02-21T00:15:33;18.30;;;3.60;;
42912;SDS011;50720;54.324;18.558;2024-02-21T00:18:17;18.10;;;3.90;;
42912;SDS011;50720;54.324;18.558;2024-02-21T00:21:01;20.10;;;3.55;;
42912;SDS011;50720;54.324;18.558;2024-02-21T00:23:46;17.40;;;3.65;;
42912;SDS011;50720;54.324;18.558;2024-02-21T00:26:31;20.50;;;2.92;;
42912;SDS011;50720;54.324;18.558;2024-02-21T00:29:15;10.93;;;2.55;;
42912;SDS011;50720;54.324;18.558;2024-02-21T00:31:58;13.85;;;3.72;;
42912;SDS011;50720;54.324;18.558;2024-02-21T00:34:42;19.00;;;3.47;;
42912;SDS011;50720;54.324;18.558;2024-02-21T00:37:25;18.17;;;4.25;;
42912;SDS011;50720;54.324;18.558;2024-02-21T00:40:10;18.80;;;4.60;;
42912;SDS011;50720;54.324;18.558;2024-02-21T00:42:54;20.52;;;3.97;;
42912;SDS011;50720;54.324;18.558;2024-02-21T00:45:38;16.80;;;4.35;;
42912;SDS011;50720;54.324;18.558;2024-02-21T00:48:21;17.30;;;3.70;;
42912;SDS011;50720;54.324;18.558;2024-02-21T00:51:04;17.70;;;4.38;;
42912;SDS011;50720;54.324;18.558;2024-02-21T00:53:48;28.60;;;4.93;;
42912;SDS011;50720;54.324;18.558;2024-02-21T00:56:33;11.32;;;3.40;;
42912;SDS011;50720;54.324;18.558;2024-02-21T00:59:16;17.52;;;4.03;;
42912;SDS011;50720;54.324;18.558;2024-02-21T01:02:00;21.63;;;3.83;;
42912;SDS011;50720;54.324;18.558;2024-02-21T01:04:44;23.70;;;4.90;;
42912;SDS011;50720;54.324;18.558;2024-02-21T01:07:27;24.20;;;4.20;;
42912;SDS011;50720;54.324;18.558;2024-02-21T01:10:11;29.42;;;4.65;;
42912;SDS011;50720;54.324;18.558;2024-02-21T01:12:56;17.73;;;4.60;;
42912;SDS011;50720;54.324;18.558;2024-02-21T01:15:39;15.20;;;4.07;;
42912;SDS011;50720;54.324;18.558;2024-02-21T01:18:23;21.48;;;3.97;;
42912;SDS011;50720;54.324;18.558;2024-02-21T01:21:06;24.30;;;4.90;;
42912;SDS011;50720;54.324;18.558;2024-02-21T01:23:51;15.65;;;4.25;;
42912;SDS011;50720;54.324;18.558;2024-02-21T01:26:35;27.35;;;5.25;;
42912;SDS011;50720;54.324;18.558;2024-02-21T01:29:20;21.50;;;4.63;;
42912;SDS011;50720;54.324;18.558;2024-02-21T01:32:03;24.58;;;4.63;;
42912;SDS011;50720;54.324;18.558;2024-02-21T01:34:47;22.63;;;5.18;;
42912;SDS011;50720;54.324;18.558;2024-02-21T01:37:31;22.27;;;4.55;;
42912;SDS011;50720;54.324;18.558;2024-02-21T01:40:15;16.13;;;4.07;;
42912;SDS011;50720;54.324;18.558;2024-02-21T01:42:58;17.83;;;5.13;;
42912;SDS011;50720;54.324;18.558;2024-02-21T01:45:43;20.15;;;4.90;;
42912;SDS011;50720;54.324;18.558;2024-02-21T01:48:29;20.73;;;4.97;;
42912;SDS011;50720;54.324;18.558;2024-02-21T01:51:13;17.85;;;5.18;;
42912;SDS011;50720;54.324;18.558;2024-02-21T01:53:57;20.10;;;4.30;;
42912;SDS011;50720;54.324;18.558;2024-02-21T01:56:41;14.95;;;3.95;;
42912;SDS011;50720;54.324;18.558;2024-02-21T01:59:25;21.08;;;3.67;;
42912;SDS011;50720;54.324;18.558;2024-02-21T02:02:10;19.73;;;5.43;;
42912;SDS011;50720;54.324;18.558;2024-02-21T02:04:53;17.38;;;5.10;;
42912;SDS011;50720;54.324;18.558;2024-02-21T02:07:37;14.98;;;4.40;;
42912;SDS011;50720;54.324;18.558;2024-02-21T02:10:21;19.98;;;5.45;;
42912;SDS011;50720;54.324;18.558;2024-02-21T02:13:05;28.60;;;7.35;;
42912;SDS011;50720;54.324;18.558;2024-02-21T02:15:48;21.23;;;4.57;;
42912;SDS011;50720;54.324;18.558;2024-02-21T02:18:34;23.92;;;5.20;;
42912;SDS011;50720;54.324;18.558;2024-02-21T02:21:21;17.65;;;4.53;;
42912;SDS011;50720;54.324;18.558;2024-02-21T02:24:10;17.13;;;4.35;;
42912;SDS011;50720;54.324;18.558;2024-02-21T02:26:55;18.85;;;6.07;;
42912;SDS011;50720;54.324;18.558;2024-02-21T02:29:39;25.92;;;5.40;;
42912;SDS011;50720;54.324;18.558;2024-02-21T02:32:22;20.08;;;4.30;;
42912;SDS011;50720;54.324;18.558;2024-02-21T02:35:06;20.17;;;4.50;;
42912;SDS011;50720;54.324;18.558;2024-02-21T02:37:49;22.65;;;5.18;;
42912;SDS011;50720;54.324;18.558;2024-02-21T02:40:35;15.13;;;4.72;;
42912;SDS011;50720;54.324;18.558;2024-02-21T02:43:18;22.52;;;5.47;;
42912;SDS011;50720;54.324;18.558;2024-02-21T02:46:02;24.20;;;4.82;;
42912;SDS011;50720;54.324;18.558;2024-02-21T02:48:46;26.00;;;5.55;;
42912;SDS011;50720;54.324;18.558;2024-02-21T02:51:29;15.35;;;4.82;;
42912;SDS011;50720;54.324;18.558;2024-02-21T02:54:13;15.15;;;4.40;;
42912;SDS011;50720;54.324;18.558;2024-02-21T02:56:58;16.58;;;4.75;;
42912;SDS011;50720;54.324;18.558;2024-02-21T02:59:41;18.60;;;5.25;;
42912;SDS011;50720;54.324;18.558;2024-02-21T03:02:25;16.08;;;4.57;;
42912;SDS011;50720;54.324;18.558;2024-02-21T03:05:12;13.82;;;4.10;;
42912;SDS011;50720;54.324;18.558;2024-02-21T03:07:57;18.40;;;4.53;;
42912;SDS011;50720;54.324;18.558;2024-02-21T03:10:41;16.25;;;4.10;;
42912;SDS011;50720;54.324;18.558;2024-02-21T03:13:26;23.45;;;5.22;;
42912;SDS011;50720;54.324;18.558;2024-02-21T03:16:10;16.15;;;3.17;;
42912;SDS011;50720;54.324;18.558;2024-02-21T03:18:53;26.92;;;5.15;;
42912;SDS011;50720;54.324;18.558;2024-02-21T03:21:37;16.83;;;4.13;;
42912;SDS011;50720;54.324;18.558;2024-02-21T03:24:20;14.73;;;3.63;;
42912;SDS011;50720;54.324;18.558;2024-02-21T03:27:04;19.67;;;4.40;;
42912;SDS011;50720;54.324;18.558;2024-02-21T03:29:49;19.13;;;5.00;;
42912;SDS011;50720;54.324;18.558;2024-02-21T03:32:33;20.98;;;5.00;;
42912;SDS011;50720;54.324;18.558;2024-02-21T03:35:16;15.45;;;4.03;;
42912;SDS011;50720;54.324;18.558;2024-02-21T03:38:00;20.10;;;5.97;;
42912;SDS011;50720;54.324;18.558;2024-02-21T03:40:43;19.65;;;4.28;;
42912;SDS011;50720;54.324;18.558;2024-02-21T03:43:27;19.88;;;5.60;;
42912;SDS011;50720;54.324;18.558;2024-02-21T03:46:12;18.58;;;4.10;;
42912;SDS011;50720;54.324;18.558;2024-02-21T03:48:55;11.57;;;3.95;;
42912;SDS011;50720;54.324;18.558;2024-02-21T03:51:39;25.58;;;5.88;;
42912;SDS011;50720;54.324;18.558;2024-02-21T03:54:22;23.02;;;5.15;;
42912;SDS011;50720;54.324;18.558;2024-02-21T03:57:06;17.55;;;5.45;;
42912;SDS011;50720;54.324;18.558;2024-02-21T03:59:50;20.67;;;4.57;;
42912;SDS011;50720;54.324;18.558;2024-02-21T04:02:35;18.40;;;6.43;;
42912;SDS011;50720;54.324;18.558;2024-02-21T04:05:18;12.68;;;4.03;;
42912;SDS011;50720;54.324;18.558;2024-02-21T04:08:03;13.00;;;3.95;;
42912;SDS011;50720;54.324;18.558;2024-02-21T04:10:47;11.30;;;3.90;;
42912;SDS011;50720;54.324;18.558;2024-02-21T04:13:31;16.10;;;4.97;;
42912;SDS011;50720;54.324;18.558;2024-02-21T04:16:14;18.05;;;5.55;;
42912;SDS011;50720;54.324;18.558;2024-02-21T04:18:59;22.52;;;4.22;;
42912;SDS011;50720;54.324;18.558;2024-02-21T04:21:43;13.43;;;4.68;;
42912;SDS011;50720;54.324;18.558;2024-02-21T04:24:27;18.30;;;4.45;;
42912;SDS011;50720;54.324;18.558;2024-02-21T04:27:10;15.07;;;4.95;;
42912;SDS011;50720;54.324;18.558;2024-02-21T04:29:54;18.67;;;5.68;;
42912;SDS011;50720;54.324;18.558;2024-02-21T04:32:38;16.92;;;4.78;;
42912;SDS011;50720;54.324;18.558;2024-02-21T04:35:23;15.52;;;5.50;;
42912;SDS011;50720;54.324;18.558;2024-02-21T04:38:07;14.48;;;4.93;;
42912;SDS011;50720;54.324;18.558;2024-02-21T04:40:50;13.93;;;5.57;;
42912;SDS011;50720;54.324;18.558;2024-02-21T04:43:34;15.65;;;5.40;;
42912;SDS011;50720;54.324;18.558;2024-02-21T04:46:18;11.05;;;4.65;;
42912;SDS011;50720;54.324;18.558;2024-02-21T04:49:01;16.77;;;4.85;;
42912;SDS011;50720;54.324;18.558;2024-02-21T04:51:46;11.90;;;5.50;;
42912;SDS011;50720;54.324;18.558;2024-02-21T04:54:30;15.55;;;5.05;;
42912;SDS011;50720;54.324;18.558;2024-02-21T04:57:13;15.32;;;4.53;;
42912;SDS011;50720;54.324;18.558;2024-02-21T04:59:58;17.60;;;5.50;;
42912;SDS011;50720;54.324;18.558;2024-02-21T05:02:42;19.48;;;5.20;;
42912;SDS011;50720;54.324;18.558;2024-02-21T05:05:25;11.65;;;4.90;;
42912;SDS011;50720;54.324;18.558;2024-02-21T05:08:10;15.40;;;4.65;;
42912;SDS011;50720;54.324;18.558;2024-02-21T05:10:54;11.52;;;4.82;;
42912;SDS011;50720;54.324;18.558;2024-02-21T05:13:38;17.25;;;5.10;;
42912;SDS011;50720;54.324;18.558;2024-02-21T05:16:21;12.80;;;6.00;;
42912;SDS011;50720;54.324;18.558;2024-02-21T05:19:05;12.30;;;5.43;;
42912;SDS011;50720;54.324;18.558;2024-02-21T05:21:48;13.60;;;4.63;;
42912;SDS011;50720;54.324;18.558;2024-02-21T05:24:33;18.25;;;5.63;;
42912;SDS011;50720;54.324;18.558;2024-02-21T05:27:17;14.98;;;5.70;;
42912;SDS011;50720;54.324;18.558;2024-02-21T05:30:01;14.45;;;7.22;;
42912;SDS011;50720;54.324;18.558;2024-02-21T05:32:45;16.15;;;5.18;;
42912;SDS011;50720;54.324;18.558;2024-02-21T05:35:28;16.17;;;6.22;;
42912;SDS011;50720;54.324;18.558;2024-02-21T05:38:12;13.48;;;5.45;;
42912;SDS011;50720;54.324;18.558;2024-02-21T05:40:57;26.08;;;7.40;;
42912;SDS011;50720;54.324;18.558;2024-02-21T05:43:40;17.90;;;7.00;;
42912;SDS011;50720;54.324;18.558;2024-02-21T05:46:24;15.50;;;7.25;;
42912;SDS011;50720;54.324;18.558;2024-02-21T05:49:07;12.10;;;5.75;;
42912;SDS011;50720;54.324;18.558;2024-02-21T05:51:51;12.57;;;5.70;;
42912;SDS011;50720;54.324;18.558;2024-02-21T05:54:34;16.15;;;5.80;;
42912;SDS011;50720;54.324;18.558;2024-02-21T05:57:22;14.10;;;6.25;;
42912;SDS011;50720;54.324;18.558;2024-02-21T06:00:06;14.65;;;6.57;;
42912;SDS011;50720;54.324;18.558;2024-02-21T06:02:50;16.00;;;7.38;;
42912;SDS011;50720;54.324;18.558;2024-02-21T06:05:36;18.52;;;7.63;;
42912;SDS011;50720;54.324;18.558;2024-02-21T06:08:20;23.05;;;8.02;;
42912;SDS011;50720;54.324;18.558;2024-02-21T06:11:04;18.90;;;8.00;;
42912;SDS011;50720;54.324;18.558;2024-02-21T06:13:49;12.88;;;7.05;;
42912;SDS011;50720;54.324;18.558;2024-02-21T06:16:32;13.93;;;7.15;;
42912;SDS011;50720;54.324;18.558;2024-02-21T06:19:16;16.13;;;6.35;;
42912;SDS011;50720;54.324;18.558;2024-02-21T06:22:00;21.88;;;7.18;;
42912;SDS011;50720;54.324;18.558;2024-02-21T06:24:49;19.83;;;7.50;;
42912;SDS011;50720;54.324;18.558;2024-02-21T06:27:32;20.48;;;6.78;;
42912;SDS011;50720;54.324;18.558;2024-02-21T06:30:17;21.30;;;8.85;;
42912;SDS011;50720;54.324;18.558;2024-02-21T06:33:00;18.33;;;7.60;;
42912;SDS011;50720;54.324;18.558;2024-02-21T06:35:45;17.95;;;7.18;;
42912;SDS011;50720;54.324;18.558;2024-02-21T06:38:29;20.58;;;7.07;;
42912;SDS011;50720;54.324;18.558;2024-02-21T06:41:16;22.20;;;7.40;;
42912;SDS011;50720;54.324;18.558;2024-02-21T06:44:01;18.85;;;6.05;;
42912;SDS011;50720;54.324;18.558;2024-02-21T06:46:47;20.63;;;7.22;;
42912;SDS011;50720;54.324;18.558;2024-02-21T06:49:30;16.83;;;6.22;;
42912;SDS011;50720;54.324;18.558;2024-02-21T06:52:14;17.63;;;7.25;;
42912;SDS011;50720;54.324;18.558;2024-02-21T06:54:58;16.60;;;6.82;;
42912;SDS011;50720;54.324;18.558;2024-02-21T06:57:42;18.20;;;5.97;;
42912;SDS011;50720;54.324;18.558;2024-02-21T07:00:25;16.75;;;6.35;;
42912;SDS011;50720;54.324;18.558;2024-02-21T07:03:10;14.55;;;5.88;;
42912;SDS011;50720;54.324;18.558;2024-02-21T07:05:54;16.35;;;6.00;;
42912;SDS011;50720;54.324;18.558;2024-02-21T07:08:37;23.83;;;7.47;;
42912;SDS011;50720;54.324;18.558;2024-02-21T07:11:21;19.67;;;6.80;;
42912;SDS011;50720;54.324;18.558;2024-02-21T07:14:05;24.73;;;8.63;;
42912;SDS011;50720;54.324;18.558;2024-02-21T07:16:48;23.65;;;7.57;;
42912;SDS011;50720;54.324;18.558;2024-02-21T07:19:33;22.02;;;7.18;;
42912;SDS011;50720;54.324;18.558;2024-02-21T07:22:18;17.35;;;7.10;;
42912;SDS011;50720;54.324;18.558;2024-02-21T07:25:01;19.70;;;7.20;;
42912;SDS011;50720;54.324;18.558;2024-02-21T07:27:47;15.15;;;7.38;;
42912;SDS011;50720;54.324;18.558;2024-02-21T07:30:30;23.77;;;7.40;;
42912;SDS011;50720;54.324;18.558;2024-02-21T07:33:14;31.88;;;8.18;;
42912;SDS011;50720;54.324;18.558;2024-02-21T07:35:59;23.48;;;7.88;;
42912;SDS011;50720;54.324;18.558;2024-02-21T07:38:42;19.08;;;8.10;;
42912;SDS011;50720;54.324;18.558;2024-02-21T07:41:25;20.70;;;8.07;;
42912;SDS011;50720;54.324;18.558;2024-02-21T07:44:10;25.40;;;8.90;;
42912;SDS011;50720;54.324;18.558;2024-02-21T07:46:53;28.92;;;9.38;;
42912;SDS011;50720;54.324;18.558;2024-02-21T07:49:43;26.05;;;9.27;;
42912;SDS011;50720;54.324;18.558;2024-02-21T07:52:29;30.10;;;9.73;;
42912;SDS011;50720;54.324;18.558;2024-02-21T07:55:12;26.80;;;10.00;;
42912;SDS011;50720;54.324;18.558;2024-02-21T07:57:56;27.88;;;9.73;;
42912;SDS011;50720;54.324;18.558;2024-02-21T08:00:39;24.15;;;9.13;;
42912;SDS011;50720;54.324;18.558;2024-02-21T08:03:23;36.15;;;11.75;;
42912;SDS011;50720;54.324;18.558;2024-02-21T08:06:11;26.90;;;9.75;;
42912;SDS011;50720;54.324;18.558;2024-02-21T08:08:56;28.60;;;9.57;;
42912;SDS011;50720;54.324;18.558;2024-02-21T08:11:42;22.10;;;10.57;;
42912;SDS011;50720;54.324;18.558;2024-02-21T08:14:25;33.55;;;14.30;;
42912;SDS011;50720;54.324;18.558;2024-02-21T08:17:09;23.67;;;9.13;;
42912;SDS011;50720;54.324;18.558;2024-02-21T08:19:52;22.00;;;10.02;;
42912;SDS011;50720;54.324;18.558;2024-02-21T08:22:37;21.05;;;9.90;;
42912;SDS011;50720;54.324;18.558;2024-02-21T08:25:22;25.98;;;9.77;;
42912;SDS011;50720;54.324;18.558;2024-02-21T08:28:05;22.90;;;11.05;;
42912;SDS011;50720;54.324;18.558;2024-02-21T08:30:49;22.95;;;9.18;;
42912;SDS011;50720;54.324;18.558;2024-02-21T08:33:33;20.63;;;9.30;;
42912;SDS011;50720;54.324;18.558;2024-02-21T08:36:19;18.15;;;8.35;;
42912;SDS011;50720;54.324;18.558;2024-02-21T08:39:03;19.25;;;8.38;;
42912;SDS011;50720;54.324;18.558;2024-02-21T08:41:48;19.08;;;8.73;;
42912;SDS011;50720;54.324;18.558;2024-02-21T08:44:39;16.65;;;7.35;;
42912;SDS011;50720;54.324;18.558;2024-02-21T08:47:24;26.05;;;8.48;;
42912;SDS011;50720;54.324;18.558;2024-02-21T08:50:08;21.80;;;8.38;;
42912;SDS011;50720;54.324;18.558;2024-02-21T08:53:07;16.52;;;8.25;;
42912;SDS011;50720;54.324;18.558;2024-02-21T08:55:51;16.05;;;10.07;;
42912;SDS011;50720;54.324;18.558;2024-02-21T08:58:36;17.65;;;8.23;;
42912;SDS011;50720;54.324;18.558;2024-02-21T09:01:20;20.15;;;9.30;;
42912;SDS011;50720;54.324;18.558;2024-02-21T09:04:03;27.40;;;9.38;;
42912;SDS011;50720;54.324;18.558;2024-02-21T09:06:47;24.02;;;10.88;;
42912;SDS011;50720;54.324;18.558;2024-02-21T09:09:31;19.75;;;9.40;;
42912;SDS011;50720;54.324;18.558;2024-02-21T09:12:15;25.15;;;11.10;;
42912;SDS011;50720;54.324;18.558;2024-02-21T09:14:59;21.70;;;10.43;;
42912;SDS011;50720;54.324;18.558;2024-02-21T09:17:43;25.50;;;10.82;;
42912;SDS011;50720;54.324;18.558;2024-02-21T09:20:26;23.33;;;12.23;;
42912;SDS011;50720;54.324;18.558;2024-02-21T09:23:10;23.83;;;12.27;;
42912;SDS011;50720;54.324;18.558;2024-02-21T09:25:54;31.67;;;14.40;;
42912;SDS011;50720;54.324;18.558;2024-02-21T09:28:38;29.65;;;12.73;;
42912;SDS011;50720;54.324;18.558;2024-02-21T09:31:23;25.98;;;12.02;;
42912;SDS011;50720;54.324;18.558;2024-02-21T09:34:06;26.75;;;11.75;;
42912;SDS011;50720;54.324;18.558;2024-02-21T09:36:50;25.35;;;11.57;;
42912;SDS011;50720;54.324;18.558;2024-02-21T09:39:33;23.45;;;12.05;;
42912;SDS011;50720;54.324;18.558;2024-02-21T09:42:17;24.00;;;12.23;;
42912;SDS011;50720;54.324;18.558;2024-02-21T09:45:04;27.95;;;12.63;;
42912;SDS011;50720;54.324;18.558;2024-02-21T09:47:56;27.92;;;12.20;;
42912;SDS011;50720;54.324;18.558;2024-02-21T09:50:47;20.88;;;10.35;;
42912;SDS011;50720;54.324;18.558;2024-02-21T09:53:33;28.10;;;11.80;;
42912;SDS011;50720;54.324;18.558;2024-02-21T09:56:20;26.45;;;11.88;;
42912;SDS011;50720;54.324;18.558;2024-02-21T09:59:03;21.55;;;10.88;;
42912;SDS011;50720;54.324;18.558;2024-02-21T10:01:47;23.40;;;10.00;;
42912;SDS011;50720;54.324;18.558;2024-02-21T10:04:33;17.27;;;9.63;;
42912;SDS011;50720;54.324;18.558;2024-02-21T10:07:17;14.38;;;9.10;;
42912;SDS011;50720;54.324;18.558;2024-02-21T10:10:05;15.85;;;9.73;;
42912;SDS011;50720;54.324;18.558;2024-02-21T10:12:49;14.55;;;9.18;;
42912;SDS011;50720;54.324;18.558;2024-02-21T10:15:36;17.20;;;8.20;;
42912;SDS011;50720;54.324;18.558;2024-02-21T10:18:19;13.02;;;7.88;;
42912;SDS011;50720;54.324;18.558;2024-02-21T10:21:05;12.13;;;7.05;;
42912;SDS011;50720;54.324;18.558;2024-02-21T10:23:49;11.65;;;6.90;;
42912;SDS011;50720;54.324;18.558;2024-02-21T10:26:33;13.93;;;7.45;;
42912;SDS011;50720;54.324;18.558;2024-02-21T10:29:18;19.08;;;6.65;;
42912;SDS011;50720;54.324;18.558;2024-02-21T10:32:06;11.65;;;6.00;;
42912;SDS011;50720;54.324;18.558;2024-02-21T10:34:50;10.30;;;5.82;;
42912;SDS011;50720;54.324;18.558;2024-02-21T10:37:46;10.38;;;5.90;;
42912;SDS011;50720;54.324;18.558;2024-02-21T10:40:30;10.27;;;6.22;;
42912;SDS011;50720;54.324;18.558;2024-02-21T10:43:14;8.65;;;5.10;;
42912;SDS011;50720;54.324;18.558;2024-02-21T10:46:01;7.75;;;5.55;;
42912;SDS011;50720;54.324;18.558;2024-02-21T10:48:48;8.60;;;4.85;;
42912;SDS011;50720;54.324;18.558;2024-02-21T10:51:44;8.60;;;5.13;;
42912;SDS011;50720;54.324;18.558;2024-02-21T10:54:34;7.40;;;4.95;;
42912;SDS011;50720;54.324;18.558;2024-02-21T10:57:24;8.00;;;4.50;;
42912;SDS011;50720;54.324;18.558;2024-02-21T11:00:09;7.45;;;5.20;;
42912;SDS011;50720;54.324;18.558;2024-02-21T11:02:54;9.95;;;4.63;;
42912;SDS011;50720;54.324;18.558;2024-02-21T11:05:37;6.30;;;4.88;;
42912;SDS011;50720;54.324;18.558;2024-02-21T11:08:23;6.80;;;3.80;;
42912;SDS011;50720;54.324;18.558;2024-02-21T11:11:11;8.05;;;3.70;;
42912;SDS011;50720;54.324;18.558;2024-02-21T11:14:17;6.05;;;4.75;;
42912;SDS011;50720;54.324;18.558;2024-02-21T11:17:01;9.45;;;4.47;;
42912;SDS011;50720;54.324;18.558;2024-02-21T11:19:46;8.50;;;3.92;;
42912;SDS011;50720;54.324;18.558;2024-02-21T11:22:40;8.10;;;4.22;;
42912;SDS011;50720;54.324;18.558;2024-02-21T11:25:25;6.07;;;4.05;;
42912;SDS011;50720;54.324;18.558;2024-02-21T11:28:10;7.93;;;4.07;;
42912;SDS011;50720;54.324;18.558;2024-02-21T11:31:04;6.35;;;4.10;;
42912;SDS011;50720;54.324;18.558;2024-02-21T11:33:51;5.57;;;3.97;;
42912;SDS011;50720;54.324;18.558;2024-02-21T11:36:34;6.63;;;3.58;;
42912;SDS011;50720;54.324;18.558;2024-02-21T11:39:21;9.02;;;3.83;;
42912;SDS011;50720;54.324;18.558;2024-02-21T11:42:07;4.93;;;3.70;;
42912;SDS011;50720;54.324;18.558;2024-02-21T11:44:53;6.38;;;3.53;;
42912;SDS011;50720;54.324;18.558;2024-02-21T11:47:38;8.95;;;4.53;;
42912;SDS011;50720;54.324;18.558;2024-02-21T11:50:23;6.32;;;3.85;;
42912;SDS011;50720;54.324;18.558;2024-02-21T11:53:07;5.82;;;3.63;;
42912;SDS011;50720;54.324;18.558;2024-02-21T11:55:52;7.60;;;4.45;;
42912;SDS011;50720;54.324;18.558;2024-02-21T11:58:37;5.35;;;4.18;;
42912;SDS011;50720;54.324;18.558;2024-02-21T12:01:22;7.10;;;3.95;;
42912;SDS011;50720;54.324;18.558;2024-02-21T12:04:05;5.28;;;3.67;;
42912;SDS011;50720;54.324;18.558;2024-02-21T12:06:49;4.40;;;3.83;;
42912;SDS011;50720;54.324;18.558;2024-02-21T12:09:35;9.40;;;4.97;;
42912;SDS011;50720;54.324;18.558;2024-02-21T12:12:19;6.47;;;4.45;;
42912;SDS011;50720;54.324;18.558;2024-02-21T12:15:03;6.85;;;3.70;;
42912;SDS011;50720;54.324;18.558;2024-02-21T12:17:49;9.15;;;3.85;;
42912;SDS011;50720;54.324;18.558;2024-02-21T12:20:33;5.28;;;3.40;;
42912;SDS011;50720;54.324;18.558;2024-02-21T12:23:18;4.75;;;2.80;;
42912;SDS011;50720;54.324;18.558;2024-02-21T12:26:02;5.88;;;3.30;;
42912;SDS011;50720;54.324;18.558;2024-02-21T12:28:47;3.03;;;2.42;;
42912;SDS011;50720;54.324;18.558;2024-02-21T12:31:30;3.63;;;2.42;;
42912;SDS011;50720;54.324;18.558;2024-02-21T12:34:15;2.95;;;1.95;;
42912;SDS011;50720;54.324;18.558;2024-02-21T12:37:11;2.65;;;2.20;;
42912;SDS011;50720;54.324;18.558;2024-02-21T12:39:57;3.80;;;1.80;;
42912;SDS011;50720;54.324;18.558;2024-02-21T12:42:40;3.80;;;1.60;;
42912;SDS011;50720;54.324;18.558;2024-02-21T12:45:24;3.92;;;2.00;;
42912;SDS011;50720;54.324;18.558;2024-02-21T12:48:08;6.15;;;1.40;;
42912;SDS011;50720;54.324;18.558;2024-02-21T12:50:53;3.55;;;1.70;;
42912;SDS011;50720;54.324;18.558;2024-02-21T12:53:36;2.10;;;1.33;;
42912;SDS011;50720;54.324;18.558;2024-02-21T12:56:21;3.25;;;2.40;;
42912;SDS011;50720;54.324;18.558;2024-02-21T12:59:04;8.43;;;1.55;;
42912;SDS011;50720;54.324;18.558;2024-02-21T13:01:50;6.32;;;1.40;;
42912;SDS011;50720;54.324;18.558;2024-02-21T13:04:34;6.22;;;1.30;;
42912;SDS011;50720;54.324;18.558;2024-02-21T13:07:19;5.68;;;1.60;;
42912;SDS011;50720;54.324;18.558;2024-02-21T13:10:03;2.10;;;1.00;;
42912;SDS011;50720;54.324;18.558;2024-02-21T13:12:47;2.97;;;1.27;;
42912;SDS011;50720;54.324;18.558;2024-02-21T13:15:31;3.25;;;1.25;;
42912;SDS011;50720;54.324;18.558;2024-02-21T13:18:14;1.85;;;1.13;;
42912;SDS011;50720;54.324;18.558;2024-02-21T13:20:58;2.80;;;1.20;;
42912;SDS011;50720;54.324;18.558;2024-02-21T13:23:43;4.75;;;1.60;;
42912;SDS011;50720;54.324;18.558;2024-02-21T13:26:26;5.40;;;1.42;;
42912;SDS011;50720;54.324;18.558;2024-02-21T13:29:10;4.55;;;1.83;;
42912;SDS011;50720;54.324;18.558;2024-02-21T13:31:53;2.60;;;1.35;;
42912;SDS011;50720;54.324;18.558;2024-02-21T13:34:37;6.55;;;1.67;;
42912;SDS011;50720;54.324;18.558;2024-02-21T13:37:21;1.50;;;1.25;;
42912;SDS011;50720;54.324;18.558;2024-02-21T13:40:07;3.53;;;1.50;;
42912;SDS011;50720;54.324;18.558;2024-02-21T13:42:51;1.77;;;1.63;;
42912;SDS011;50720;54.324;18.558;2024-02-21T13:45:35;3.17;;;2.25;;
42912;SDS011;50720;54.324;18.558;2024-02-21T13:48:19;3.13;;;2.10;;
42912;SDS011;50720;54.324;18.558;2024-02-21T13:51:02;5.38;;;2.20;;
42912;SDS011;50720;54.324;18.558;2024-02-21T13:53:46;5.78;;;2.15;;
42912;SDS011;50720;54.324;18.558;2024-02-21T13:56:31;3.38;;;2.50;;
42912;SDS011;50720;54.324;18.558;2024-02-21T13:59:15;4.07;;;1.85;;
42912;SDS011;50720;54.324;18.558;2024-02-21T14:01:59;8.75;;;2.20;;
42912;SDS011;50720;54.324;18.558;2024-02-21T14:04:43;5.72;;;2.63;;
42912;SDS011;50720;54.324;18.558;2024-02-21T14:07:27;5.38;;;3.03;;
42912;SDS011;50720;54.324;18.558;2024-02-21T14:10:10;5.10;;;2.95;;
42912;SDS011;50720;54.324;18.558;2024-02-21T14:12:55;4.55;;;2.38;;
42912;SDS011;50720;54.324;18.558;2024-02-21T14:15:39;6.72;;;2.33;;
42912;SDS011;50720;54.324;18.558;2024-02-21T14:18:25;3.13;;;2.20;;
42912;SDS011;50720;54.324;18.558;2024-02-21T14:21:09;3.95;;;2.35;;
42912;SDS011;50720;54.324;18.558;2024-02-21T14:23:54;4.47;;;2.92;;
42912;SDS011;50720;54.324;18.558;2024-02-21T14:26:38;6.47;;;2.63;;
42912;SDS011;50720;54.324;18.558;2024-02-21T14:29:24;7.72;;;2.85;;
42912;SDS011;50720;54.324;18.558;2024-02-21T14:32:07;7.90;;;3.13;;
42912;SDS011;50720;54.324;18.558;2024-02-21T14:34:52;5.45;;;2.78;;
42912;SDS011;50720;54.324;18.558;2024-02-21T14:37:35;7.00;;;2.83;;
42912;SDS011;50720;54.324;18.558;2024-02-21T14:40:19;6.28;;;3.00;;
42912;SDS011;50720;54.324;18.558;2024-02-21T14:43:03;5.28;;;3.13;;
42912;SDS011;50720;54.324;18.558;2024-02-21T14:45:48;9.25;;;3.90;;
42912;SDS011;50720;54.324;18.558;2024-02-21T14:48:32;5.07;;;3.03;;
42912;SDS011;50720;54.324;18.558;2024-02-21T14:51:15;6.65;;;3.08;;
42912;SDS011;50720;54.324;18.558;2024-02-21T14:53:59;5.88;;;3.17;;
42912;SDS011;50720;54.324;18.558;2024-02-21T14:56:42;6.57;;;3.05;;
42912;SDS011;50720;54.324;18.558;2024-02-21T14:59:28;7.07;;;3.20;;
42912;SDS011;50720;54.324;18.558;2024-02-21T15:02:16;6.40;;;3.17;;
42912;SDS011;50720;54.324;18.558;2024-02-21T15:05:00;6.15;;;2.90;;
42912;SDS011;50720;54.324;18.558;2024-02-21T15:07:45;6.65;;;2.53;;
42912;SDS011;50720;54.324;18.558;2024-02-21T15:10:28;5.20;;;2.58;;
42912;SDS011;50720;54.324;18.558;2024-02-21T15:13:12;6.10;;;3.13;;
42912;SDS011;50720;54.324;18.558;2024-02-21T15:15:56;12.40;;;4.15;;
42912;SDS011;50720;54.324;18.558;2024-02-21T15:18:41;6.38;;;2.53;;
42912;SDS011;50720;54.324;18.558;2024-02-21T15:21:24;8.55;;;3.30;;
42912;SDS011;50720;54.324;18.558;2024-02-21T15:24:09;6.28;;;3.03;;
42912;SDS011;50720;54.324;18.558;2024-02-21T15:26:52;10.70;;;3.05;;
42912;SDS011;50720;54.324;18.558;2024-02-21T15:29:35;7.45;;;3.13;;
42912;SDS011;50720;54.324;18.558;2024-02-21T15:32:19;8.55;;;3.90;;
42912;SDS011;50720;54.324;18.558;2024-02-21T15:35:05;7.30;;;2.70;;
42912;SDS011;50720;54.324;18.558;2024-02-21T15:37:49;7.05;;;2.72;;
42912;SDS011;50720;54.324;18.558;2024-02-21T15:40:33;5.00;;;2.60;;
42912;SDS011;50720;54.324;18.558;2024-02-21T15:43:17;7.32;;;2.50;;
42912;SDS011;50720;54.324;18.558;2024-02-21T15:46:01;5.05;;;2.50;;
42912;SDS011;50720;54.324;18.558;2024-02-21T15:48:44;6.30;;;2.53;;
42912;SDS011;50720;54.324;18.558;2024-02-21T15:51:31;9.85;;;3.35;;
42912;SDS011;50720;54.324;18.558;2024-02-21T15:54:15;5.72;;;1.98;;
42912;SDS011;50720;54.324;18.558;2024-02-21T15:57:04;6.07;;;2.10;;
42912;SDS011;50720;54.324;18.558;2024-02-21T15:59:50;9.10;;;2.55;;
42912;SDS011;50720;54.324;18.558;2024-02-21T16:02:35;6.90;;;2.75;;
42912;SDS011;50720;54.324;18.558;2024-02-21T16:05:19;5.03;;;2.10;;
42912;SDS011;50720;54.324;18.558;2024-02-21T16:08:05;4.55;;;2.17;;